sensor_id;sensor_type;location;lat;lon;timestamp;pressure;altitude;pressure_sealevel;temperature;humidity
75692;BME280;64307;52.508;6.090;2022-12-05T00:01:42;101983.31;;;4.10;88.65
75692;BME280;64307;52.508;6.090;2022-12-05T00:04:10;101976.50;;;4.07;88.54
75692;BME280;64307;52.508;6.090;2022-12-05T00:06:37;101988.00;;;4.09;89.05
75692;BME280;64307;52.508;6.090;2022-12-05T00:09:05;101990.13;;;4.12;88.57
75692;BME280;64307;52.508;6.090;2022-12-05T00:11:33;101992.69;;;4.09;88.91
75692;BME280;64307;52.508;6.090;2022-12-05T00:13:59;101982.00;;;4.07;88.91
75692;BME280;64307;52.508;6.090;2022-12-05T00:16:25;101982.00;;;4.16;88.81
75692;BME280;64307;52.508;6.090;2022-12-05T00:18:51;101975.81;;;4.10;88.47
75692;BME280;64307;52.508;6.090;2022-12-05T00:21:24;101980.84;;;4.17;88.65
75692;BME280;64307;52.508;6.090;2022-12-05T00:23:52;101984.44;;;4.18;88.97
75692;BME280;64307;52.508;6.090;2022-12-05T00:26:19;101973.06;;;4.10;89.06
75692;BME280;64307;52.508;6.090;2022-12-05T00:28:44;101975.81;;;4.10;88.87
75692;BME280;64307;52.508;6.090;2022-12-05T00:31:12;101978.59;;;4.10;89.53
75692;BME280;64307;52.508;6.090;2022-12-05T00:33:38;101975.69;;;4.15;89.22
75692;BME280;64307;52.508;6.090;2022-12-05T00:36:10;101967.75;;;4.14;89.34
75692;BME280;64307;52.508;6.090;2022-12-05T00:38:36;101984.44;;;4.18;89.31
75692;BME280;64307;52.508;6.090;2022-12-05T00:41:06;101972.59;;;4.17;89.02
75692;BME280;64307;52.508;6.090;2022-12-05T00:43:32;101967.56;;;4.19;88.93
75692;BME280;64307;52.508;6.090;2022-12-05T00:46:02;101971.31;;;4.14;89.43
75692;BME280;64307;52.508;6.090;2022-12-05T00:48:28;101968.03;;;4.21;88.77
75692;BME280;64307;52.508;6.090;2022-12-05T00:51:06;101974.69;;;4.20;89.34
75692;BME280;64307;52.508;6.090;2022-12-05T00:53:32;101975.03;;;4.19;88.91
75692;BME280;64307;52.508;6.090;2022-12-05T00:56:06;101973.06;;;4.19;89.21
75692;BME280;64307;52.508;6.090;2022-12-05T00:58:32;101981.53;;;4.23;88.55
75692;BME280;64307;52.508;6.090;2022-12-05T01:01:08;101984.75;;;4.25;88.94
75692;BME280;64307;52.508;6.090;2022-12-05T01:03:34;101981.00;;;4.29;88.63
75692;BME280;64307;52.508;6.090;2022-12-05T01:06:00;101978.91;;;4.26;89.24
75692;BME280;64307;52.508;6.090;2022-12-05T01:08:26;101986.84;;;4.28;89.29
75692;BME280;64307;52.508;6.090;2022-12-05T01:10:53;101982.50;;;4.27;88.94
75692;BME280;64307;52.508;6.090;2022-12-05T01:13:18;101988.00;;;4.27;89.64
75692;BME280;64307;52.508;6.090;2022-12-05T01:15:44;101982.63;;;4.22;89.72
75692;BME280;64307;52.508;6.090;2022-12-05T01:18:09;101988.78;;;4.27;89.06
75692;BME280;64307;52.508;6.090;2022-12-05T01:20:38;101990.75;;;4.27;89.68
75692;BME280;64307;52.508;6.090;2022-12-05T01:23:03;101994.31;;;4.27;89.60
75692;BME280;64307;52.508;6.090;2022-12-05T01:25:28;101974.38;;;4.22;89.55
75692;BME280;64307;52.508;6.090;2022-12-05T01:27:54;101991.06;;;4.25;89.69
75692;BME280;64307;52.508;6.090;2022-12-05T01:30:20;101981.34;;;4.19;89.83
75692;BME280;64307;52.508;6.090;2022-12-05T01:32:45;101986.69;;;4.15;90.58
75692;BME280;64307;52.508;6.090;2022-12-05T01:35:10;101990.75;;;4.18;90.24
75692;BME280;64307;52.508;6.090;2022-12-05T01:37:36;101993.03;;;4.25;90.44
75692;BME280;64307;52.508;6.090;2022-12-05T01:40:01;101996.44;;;4.22;89.99
75692;BME280;64307;52.508;6.090;2022-12-05T01:42:28;101989.44;;;4.24;89.95
75692;BME280;64307;52.508;6.090;2022-12-05T01:47:18;101989.78;;;4.23;90.46
75692;BME280;64307;52.508;6.090;2022-12-05T01:49:46;101993.19;;;4.20;90.89
75692;BME280;64307;52.508;6.090;2022-12-05T01:52:20;101995.94;;;4.20;91.33
75692;BME280;64307;52.508;6.090;2022-12-05T01:54:49;101995.78;;;4.25;90.67
75692;BME280;64307;52.508;6.090;2022-12-05T01:57:15;101998.84;;;4.23;91.05
75692;BME280;64307;52.508;6.090;2022-12-05T01:59:44;101990.41;;;4.28;90.35
75692;BME280;64307;52.508;6.090;2022-12-05T02:02:11;101998.06;;;4.23;90.61
75692;BME280;64307;52.508;6.090;2022-12-05T02:04:47;101996.56;;;4.25;90.72
75692;BME280;64307;52.508;6.090;2022-12-05T02:07:17;101990.75;;;4.27;91.06
75692;BME280;64307;52.508;6.090;2022-12-05T02:09:43;101993.81;;;4.25;91.12
75692;BME280;64307;52.508;6.090;2022-12-05T02:12:09;101996.75;;;4.29;90.92
75692;BME280;64307;52.508;6.090;2022-12-05T02:15:14;101980.03;;;4.25;91.30
75692;BME280;64307;52.508;6.090;2022-12-05T02:18:22;101987.19;;;4.35;90.73
75692;BME280;64307;52.508;6.090;2022-12-05T02:32:30;101970.78;;;4.38;91.27
75692;BME280;64307;52.508;6.090;2022-12-05T02:38:25;101975.31;;;4.43;91.29
75692;BME280;64307;52.508;6.090;2022-12-05T02:43:44;101968.66;;;4.44;91.20
75692;BME280;64307;52.508;6.090;2022-12-05T02:46:15;101969.13;;;4.46;91.47
75692;BME280;64307;52.508;6.090;2022-12-05T02:48:44;101973.03;;;4.45;91.56
75692;BME280;64307;52.508;6.090;2022-12-05T02:51:13;101967.53;;;4.45;91.56
75692;BME280;64307;52.508;6.090;2022-12-05T02:53:42;101974.00;;;4.49;91.96
75692;BME280;64307;52.508;6.090;2022-12-05T02:56:09;101965.88;;;4.44;92.17
75692;BME280;64307;52.508;6.090;2022-12-05T02:58:41;101971.72;;;4.51;91.43
75692;BME280;64307;52.508;6.090;2022-12-05T03:01:08;101961.34;;;4.48;92.28
75692;BME280;64307;52.508;6.090;2022-12-05T03:03:34;101958.09;;;4.46;92.26
75692;BME280;64307;52.508;6.090;2022-12-05T03:06:13;101957.59;;;4.52;91.93
75692;BME280;64307;52.508;6.090;2022-12-05T03:11:10;101958.56;;;4.56;92.01
75692;BME280;64307;52.508;6.090;2022-12-05T03:13:42;101962.28;;;4.60;92.09
75692;BME280;64307;52.508;6.090;2022-12-05T03:16:36;101966.50;;;4.58;92.11
75692;BME280;64307;52.508;6.090;2022-12-05T03:19:17;101971.22;;;4.57;92.22
75692;BME280;64307;52.508;6.090;2022-12-05T03:22:07;101972.00;;;4.58;92.32
75692;BME280;64307;52.508;6.090;2022-12-05T03:24:39;101952.41;;;4.51;92.63
75692;BME280;64307;52.508;6.090;2022-12-05T03:27:10;101971.84;;;4.63;92.20
75692;BME280;64307;52.508;6.090;2022-12-05T03:30:03;101977.69;;;4.70;92.02
75692;BME280;64307;52.508;6.090;2022-12-05T03:32:37;101979.47;;;4.66;92.31
75692;BME280;64307;52.508;6.090;2022-12-05T03:40:18;101984.66;;;4.67;92.45
75692;BME280;64307;52.508;6.090;2022-12-05T03:45:44;101985.28;;;4.73;92.00
75692;BME280;64307;52.508;6.090;2022-12-05T03:48:27;101990.94;;;4.76;92.27
75692;BME280;64307;52.508;6.090;2022-12-05T03:50:55;101984.94;;;4.74;92.56
75692;BME280;64307;52.508;6.090;2022-12-05T03:53:26;101993.22;;;4.74;92.64
75692;BME280;64307;52.508;6.090;2022-12-05T03:55:59;101996.16;;;4.78;92.72
75692;BME280;64307;52.508;6.090;2022-12-05T03:58:30;101985.59;;;4.80;92.72
75692;BME280;64307;52.508;6.090;2022-12-05T04:01:00;101988.66;;;4.78;92.77
75692;BME280;64307;52.508;6.090;2022-12-05T04:03:34;101982.50;;;4.81;92.70
75692;BME280;64307;52.508;6.090;2022-12-05T04:06:05;101995.47;;;4.81;92.73
75692;BME280;64307;52.508;6.090;2022-12-05T04:08:39;101992.25;;;4.79;93.30
75692;BME280;64307;52.508;6.090;2022-12-05T04:11:14;101990.28;;;4.88;93.00
75692;BME280;64307;52.508;6.090;2022-12-05T04:13:42;101990.44;;;4.83;92.95
75692;BME280;64307;52.508;6.090;2022-12-05T04:16:22;101982.16;;;4.83;93.22
75692;BME280;64307;52.508;6.090;2022-12-05T04:19:43;101982.16;;;4.83;93.29
75692;BME280;64307;52.508;6.090;2022-12-05T04:22:29;101977.13;;;4.85;92.97
75692;BME280;64307;52.508;6.090;2022-12-05T04:24:56;101988.00;;;4.90;93.33
75692;BME280;64307;52.508;6.090;2022-12-05T04:30:34;101991.56;;;4.90;93.10
75692;BME280;64307;52.508;6.090;2022-12-05T04:33:12;101995.13;;;4.91;93.13
75692;BME280;64307;52.508;6.090;2022-12-05T04:35:45;101995.59;;;4.93;93.67
75692;BME280;64307;52.508;6.090;2022-12-05T04:38:20;101985.22;;;4.90;93.60
75692;BME280;64307;52.508;6.090;2022-12-05T04:41:01;101987.31;;;4.93;93.69
75692;BME280;64307;52.508;6.090;2022-12-05T04:43:29;101983.91;;;4.96;93.48
75692;BME280;64307;52.508;6.090;2022-12-05T04:45:57;101971.91;;;4.92;93.97
75692;BME280;64307;52.508;6.090;2022-12-05T04:48:25;101974.00;;;4.95;94.08
75692;BME280;64307;52.508;6.090;2022-12-05T04:50:53;101976.44;;;4.96;93.57
75692;BME280;64307;52.508;6.090;2022-12-05T04:53:20;101973.50;;;4.93;93.82
75692;BME280;64307;52.508;6.090;2022-12-05T04:55:49;101978.38;;;4.96;93.93
75692;BME280;64307;52.508;6.090;2022-12-05T04:58:22;101971.72;;;4.97;93.59
75692;BME280;64307;52.508;6.090;2022-12-05T05:01:00;101974.00;;;4.95;94.09
75692;BME280;64307;52.508;6.090;2022-12-05T05:03:31;101977.56;;;4.95;94.13
75692;BME280;64307;52.508;6.090;2022-12-05T05:05:59;101977.22;;;4.97;94.07
75692;BME280;64307;52.508;6.090;2022-12-05T05:08:27;101976.56;;;5.00;93.85
75692;BME280;64307;52.508;6.090;2022-12-05T05:10:56;101980.16;;;5.01;93.91
75692;BME280;64307;52.508;6.090;2022-12-05T05:13:25;101974.63;;;5.01;94.17
75692;BME280;64307;52.508;6.090;2022-12-05T05:15:51;101975.28;;;4.97;93.90
75692;BME280;64307;52.508;6.090;2022-12-05T05:18:16;101967.81;;;4.98;93.86
75692;BME280;64307;52.508;6.090;2022-12-05T05:20:41;101970.25;;;4.99;93.82
75692;BME280;64307;52.508;6.090;2022-12-05T05:23:08;101976.25;;;5.02;93.63
75692;BME280;64307;52.508;6.090;2022-12-05T05:25:34;101983.41;;;5.03;93.88
75692;BME280;64307;52.508;6.090;2022-12-05T05:27:59;101987.41;;;5.05;93.84
75692;BME280;64307;52.508;6.090;2022-12-05T05:30:25;101980.28;;;5.04;94.08
75692;BME280;64307;52.508;6.090;2022-12-05T05:32:50;101990.53;;;5.04;93.92
75692;BME280;64307;52.508;6.090;2022-12-05T05:35:16;101973.47;;;5.02;93.65
75692;BME280;64307;52.508;6.090;2022-12-05T05:37:42;101993.91;;;5.09;94.01
75692;BME280;64307;52.508;6.090;2022-12-05T05:40:09;101986.78;;;5.08;93.73
75692;BME280;64307;52.508;6.090;2022-12-05T05:42:35;101980.28;;;5.04;94.27
75692;BME280;64307;52.508;6.090;2022-12-05T05:45:00;101985.44;;;5.14;93.28
75692;BME280;64307;52.508;6.090;2022-12-05T05:47:25;101985.44;;;5.14;93.49
75692;BME280;64307;52.508;6.090;2022-12-05T05:49:51;101987.38;;;5.14;93.51
75692;BME280;64307;52.508;6.090;2022-12-05T05:52:16;101985.78;;;5.13;93.52
75692;BME280;64307;52.508;6.090;2022-12-05T05:54:41;101985.25;;;5.19;92.95
75692;BME280;64307;52.508;6.090;2022-12-05T05:57:07;101985.91;;;5.16;93.34
75692;BME280;64307;52.508;6.090;2022-12-05T05:59:32;101991.91;;;5.18;93.19
75692;BME280;64307;52.508;6.090;2022-12-05T06:01:57;101993.69;;;5.23;93.09
75692;BME280;64307;52.508;6.090;2022-12-05T06:04:23;101998.88;;;5.24;93.32
75692;BME280;64307;52.508;6.090;2022-12-05T06:06:48;101985.75;;;5.21;92.89
75692;BME280;64307;52.508;6.090;2022-12-05T06:09:13;101998.88;;;5.24;93.55
75692;BME280;64307;52.508;6.090;2022-12-05T06:11:38;101997.06;;;5.28;93.21
75692;BME280;64307;52.508;6.090;2022-12-05T06:14:04;102000.03;;;5.23;93.08
75692;BME280;64307;52.508;6.090;2022-12-05T06:16:30;101995.44;;;5.27;93.15
75692;BME280;64307;52.508;6.090;2022-12-05T06:18:55;101990.59;;;5.24;93.11
75692;BME280;64307;52.508;6.090;2022-12-05T06:21:21;101986.22;;;5.23;93.12
75692;BME280;64307;52.508;6.090;2022-12-05T06:23:47;101987.47;;;5.26;93.14
75692;BME280;64307;52.508;6.090;2022-12-05T06:26:15;101993.81;;;5.26;92.91
75692;BME280;64307;52.508;6.090;2022-12-05T06:28:41;101982.78;;;5.26;92.70
75692;BME280;64307;52.508;6.090;2022-12-05T06:31:11;102009.19;;;5.36;92.53
75692;BME280;64307;52.508;6.090;2022-12-05T06:33:37;101993.78;;;5.35;92.72
75692;BME280;64307;52.508;6.090;2022-12-05T06:36:08;102003.66;;;5.36;92.24
75692;BME280;64307;52.508;6.090;2022-12-05T06:38:33;101999.78;;;5.37;92.15
75692;BME280;64307;52.508;6.090;2022-12-05T06:40:59;101998.31;;;5.39;92.38
75692;BME280;64307;52.508;6.090;2022-12-05T06:43:24;101996.69;;;5.38;92.05
75692;BME280;64307;52.508;6.090;2022-12-05T06:45:50;101990.03;;;5.39;92.56
75692;BME280;64307;52.508;6.090;2022-12-05T06:48:15;101997.44;;;5.47;91.91
75692;BME280;64307;52.508;6.090;2022-12-05T06:50:47;102002.38;;;5.42;92.20
75692;BME280;64307;52.508;6.090;2022-12-05T06:53:14;101988.38;;;5.38;92.10
75692;BME280;64307;52.508;6.090;2022-12-05T06:55:39;101995.53;;;5.39;92.24
75692;BME280;64307;52.508;6.090;2022-12-05T06:58:05;101998.56;;;5.46;91.56
75692;BME280;64307;52.508;6.090;2022-12-05T07:00:30;101983.03;;;5.42;91.99
75692;BME280;64307;52.508;6.090;2022-12-05T07:03:13;101984.63;;;5.43;91.81
75692;BME280;64307;52.508;6.090;2022-12-05T07:05:39;101993.88;;;5.47;92.25
75692;BME280;64307;52.508;6.090;2022-12-05T07:08:04;102000.34;;;5.51;91.47
75692;BME280;64307;52.508;6.090;2022-12-05T07:10:29;101990.44;;;5.50;91.58
75692;BME280;64307;52.508;6.090;2022-12-05T07:12:55;102005.03;;;5.50;91.37
75692;BME280;64307;52.508;6.090;2022-12-05T07:15:20;102008.28;;;5.52;91.91
75692;BME280;64307;52.508;6.090;2022-12-05T07:17:45;102012.69;;;5.53;92.03
75692;BME280;64307;52.508;6.090;2022-12-05T07:20:11;102013.69;;;5.49;91.30
75692;BME280;64307;52.508;6.090;2022-12-05T07:22:36;102013.69;;;5.49;91.88
75692;BME280;64307;52.508;6.090;2022-12-05T07:25:03;102013.34;;;5.50;92.65
75692;BME280;64307;52.508;6.090;2022-12-05T07:27:28;102015.78;;;5.52;91.97
75692;BME280;64307;52.508;6.090;2022-12-05T07:29:54;102016.25;;;5.54;92.40
75692;BME280;64307;52.508;6.090;2022-12-05T07:32:19;102015.09;;;5.55;92.14
75692;BME280;64307;52.508;6.090;2022-12-05T07:34:45;102019.81;;;5.54;92.33
75692;BME280;64307;52.508;6.090;2022-12-05T07:37:10;102015.44;;;5.53;92.02
75692;BME280;64307;52.508;6.090;2022-12-05T07:39:37;102019.16;;;5.57;92.14
75692;BME280;64307;52.508;6.090;2022-12-05T07:42:03;102025.03;;;5.56;92.15
75692;BME280;64307;52.508;6.090;2022-12-05T07:44:30;102018.81;;;5.59;92.20
75692;BME280;64307;52.508;6.090;2022-12-05T07:46:57;102015.72;;;5.60;92.20
75692;BME280;64307;52.508;6.090;2022-12-05T07:49:22;102016.19;;;5.62;92.29
75692;BME280;64307;52.508;6.090;2022-12-05T07:51:47;102011.81;;;5.61;92.12
75692;BME280;64307;52.508;6.090;2022-12-05T07:54:13;102013.41;;;5.62;92.02
75692;BME280;64307;52.508;6.090;2022-12-05T07:56:38;102020.75;;;5.58;91.74
75692;BME280;64307;52.508;6.090;2022-12-05T07:59:03;102015.22;;;5.58;91.66
75692;BME280;64307;52.508;6.090;2022-12-05T08:01:29;102029.34;;;5.65;91.31
75692;BME280;64307;52.508;6.090;2022-12-05T08:03:57;102031.44;;;5.68;91.74
75692;BME280;64307;52.508;6.090;2022-12-05T08:06:24;102039.25;;;5.66;91.92
75692;BME280;64307;52.508;6.090;2022-12-05T08:08:50;102033.72;;;5.66;91.45
75692;BME280;64307;52.508;6.090;2022-12-05T08:11:21;102035.00;;;5.69;91.59
75692;BME280;64307;52.508;6.090;2022-12-05T08:13:48;102030.94;;;5.66;91.42
75692;BME280;64307;52.508;6.090;2022-12-05T08:16:19;102031.25;;;5.73;91.21
75692;BME280;64307;52.508;6.090;2022-12-05T08:18:45;102029.81;;;5.67;91.90
75692;BME280;64307;52.508;6.090;2022-12-05T08:21:16;102041.81;;;5.71;92.07
75692;BME280;64307;52.508;6.090;2022-12-05T08:23:42;102045.53;;;5.75;91.34
75692;BME280;64307;52.508;6.090;2022-12-05T08:26:18;102050.41;;;5.78;92.01
75692;BME280;64307;52.508;6.090;2022-12-05T08:28:49;102051.19;;;5.79;91.60
75692;BME280;64307;52.508;6.090;2022-12-05T08:31:17;102048.78;;;5.77;91.77
75692;BME280;64307;52.508;6.090;2022-12-05T08:33:43;102048.91;;;5.81;91.92
75692;BME280;64307;52.508;6.090;2022-12-05T08:36:12;102044.69;;;5.84;91.51
75692;BME280;64307;52.508;6.090;2022-12-05T08:38:39;102057.66;;;5.83;91.81
75692;BME280;64307;52.508;6.090;2022-12-05T08:41:09;102052.34;;;5.87;91.54
75692;BME280;64307;52.508;6.090;2022-12-05T08:43:35;102057.84;;;5.87;91.98
75692;BME280;64307;52.508;6.090;2022-12-05T08:46:00;102061.09;;;5.89;91.59
75692;BME280;64307;52.508;6.090;2022-12-05T08:48:28;102056.06;;;5.82;91.91
75692;BME280;64307;52.508;6.090;2022-12-05T08:50:54;102055.75;;;5.84;91.75
75692;BME280;64307;52.508;6.090;2022-12-05T08:53:19;102053.00;;;5.84;92.23
75692;BME280;64307;52.508;6.090;2022-12-05T08:55:45;102059.81;;;5.86;91.78
75692;BME280;64307;52.508;6.090;2022-12-05T08:58:11;102061.88;;;5.89;91.61
75692;BME280;64307;52.508;6.090;2022-12-05T09:00:36;102061.41;;;5.87;91.42
75692;BME280;64307;52.508;6.090;2022-12-05T09:03:02;102048.41;;;5.88;92.11
75692;BME280;64307;52.508;6.090;2022-12-05T09:05:28;102063.66;;;5.94;91.92
75692;BME280;64307;52.508;6.090;2022-12-05T09:07:53;102058.94;;;5.94;91.61
75692;BME280;64307;52.508;6.090;2022-12-05T09:10:18;102061.88;;;5.89;92.06
75692;BME280;64307;52.508;6.090;2022-12-05T09:12:44;102054.13;;;5.82;91.68
75692;BME280;64307;52.508;6.090;2022-12-05T09:15:10;102071.00;;;5.90;91.75
75692;BME280;64307;52.508;6.090;2022-12-05T09:17:36;102070.53;;;5.88;91.49
75692;BME280;64307;52.508;6.090;2022-12-05T09:20:02;102077.63;;;5.97;91.55
75692;BME280;64307;52.508;6.090;2022-12-05T09:22:29;102075.88;;;5.93;91.49
75692;BME280;64307;52.508;6.090;2022-12-05T09:24:55;102069.03;;;5.90;91.26
75692;BME280;64307;52.508;6.090;2022-12-05T09:27:20;102078.75;;;5.96;91.19
75692;BME280;64307;52.508;6.090;2022-12-05T09:29:46;102076.13;;;6.00;91.40
75692;BME280;64307;52.508;6.090;2022-12-05T09:32:11;102079.22;;;5.98;90.85
75692;BME280;64307;52.508;6.090;2022-12-05T09:34:36;102092.25;;;5.98;91.46
75692;BME280;64307;52.508;6.090;2022-12-05T09:37:06;102088.53;;;5.94;91.50
75692;BME280;64307;52.508;6.090;2022-12-05T09:39:34;102088.53;;;5.94;91.42
75692;BME280;64307;52.508;6.090;2022-12-05T09:45:14;102079.72;;;6.00;91.00
75692;BME280;64307;52.508;6.090;2022-12-05T09:50:23;102085.63;;;5.90;91.71
75692;BME280;64307;52.508;6.090;2022-12-05T09:53:01;102085.09;;;5.97;91.29
75692;BME280;64307;52.508;6.090;2022-12-05T09:58:04;102094.75;;;5.91;91.79
75692;BME280;64307;52.508;6.090;2022-12-05T10:00:35;102087.59;;;5.90;92.01
75692;BME280;64307;52.508;6.090;2022-12-05T10:03:23;102096.34;;;5.92;91.90
75692;BME280;64307;52.508;6.090;2022-12-05T10:18:01;102082.75;;;5.87;91.51
75692;BME280;64307;52.508;6.090;2022-12-05T10:20:32;102078.19;;;5.82;92.47
75692;BME280;64307;52.508;6.090;2022-12-05T10:23:15;102080.63;;;5.84;92.24
75692;BME280;64307;52.508;6.090;2022-12-05T10:25:43;102090.69;;;5.88;92.88
75692;BME280;64307;52.508;6.090;2022-12-05T10:28:14;102080.75;;;5.87;92.39
75692;BME280;64307;52.508;6.090;2022-12-05T10:30:42;102070.28;;;5.72;92.91
75692;BME280;64307;52.508;6.090;2022-12-05T10:33:17;102083.41;;;5.84;93.03
75692;BME280;64307;52.508;6.090;2022-12-05T10:35:45;102074.94;;;5.80;93.84
75692;BME280;64307;52.508;6.090;2022-12-05T10:38:23;102075.28;;;5.78;93.95
75692;BME280;64307;52.508;6.090;2022-12-05T10:40:53;102074.00;;;5.76;93.81
75692;BME280;64307;52.508;6.090;2022-12-05T10:43:25;102079.53;;;5.76;94.76
75692;BME280;64307;52.508;6.090;2022-12-05T10:45:51;102076.16;;;5.70;94.42
75692;BME280;64307;52.508;6.090;2022-12-05T10:48:19;102075.47;;;5.73;95.32
75692;BME280;64307;52.508;6.090;2022-12-05T10:50:47;102075.59;;;5.77;94.44
75692;BME280;64307;52.508;6.090;2022-12-05T10:53:20;102075.41;;;5.82;94.96
75692;BME280;64307;52.508;6.090;2022-12-05T10:55:47;102075.81;;;5.72;94.54
75692;BME280;64307;52.508;6.090;2022-12-05T10:58:26;102069.81;;;5.70;94.28
75692;BME280;64307;52.508;6.090;2022-12-05T11:00:58;102067.09;;;5.61;95.37
75692;BME280;64307;52.508;6.090;2022-12-05T11:03:34;102075.00;;;5.71;95.35
75692;BME280;64307;52.508;6.090;2022-12-05T11:06:24;102066.41;;;5.64;94.92
75692;BME280;64307;52.508;6.090;2022-12-05T11:08:52;102071.63;;;5.66;95.53
75692;BME280;64307;52.508;6.090;2022-12-05T11:11:20;102072.75;;;5.65;95.45
75692;BME280;64307;52.508;6.090;2022-12-05T11:14:01;102067.56;;;5.63;95.81
75692;BME280;64307;52.508;6.090;2022-12-05T11:16:33;102065.13;;;5.62;94.85
75692;BME280;64307;52.508;6.090;2022-12-05T11:21:46;102066.31;;;5.52;94.80
75692;BME280;64307;52.508;6.090;2022-12-05T11:26:49;102069.53;;;5.54;95.21
75692;BME280;64307;52.508;6.090;2022-12-05T11:29:29;102074.28;;;5.54;95.13
75692;BME280;64307;52.508;6.090;2022-12-05T11:31:55;102071.19;;;5.55;95.22
75692;BME280;64307;52.508;6.090;2022-12-05T11:34:24;102076.50;;;5.60;95.38
75692;BME280;64307;52.508;6.090;2022-12-05T11:37:04;102075.97;;;5.67;94.95
75692;BME280;64307;52.508;6.090;2022-12-05T11:39:32;102072.47;;;5.58;94.87
75692;BME280;64307;52.508;6.090;2022-12-05T11:48:07;102061.63;;;5.73;94.20
75692;BME280;64307;52.508;6.090;2022-12-05T11:50:39;102069.84;;;5.61;94.97
75692;BME280;64307;52.508;6.090;2022-12-05T11:55:51;102059.28;;;5.63;94.68
75692;BME280;64307;52.508;6.090;2022-12-05T11:58:38;102056.97;;;5.65;94.29
75692;BME280;64307;52.508;6.090;2022-12-05T12:06:53;102046.91;;;5.61;94.76
75692;BME280;64307;52.508;6.090;2022-12-05T12:09:37;102045.44;;;5.63;95.09
75692;BME280;64307;52.508;6.090;2022-12-05T12:12:25;102053.25;;;5.61;94.96
75692;BME280;64307;52.508;6.090;2022-12-05T12:17:53;102056.81;;;5.70;95.43
75692;BME280;64307;52.508;6.090;2022-12-05T12:20:43;102055.16;;;5.69;95.24
75692;BME280;64307;52.508;6.090;2022-12-05T12:29:31;102066.41;;;5.64;95.55
75692;BME280;64307;52.508;6.090;2022-12-05T12:32:10;102055.06;;;5.57;95.14
75692;BME280;64307;52.508;6.090;2022-12-05T12:37:40;102048.47;;;5.50;95.70
75692;BME280;64307;52.508;6.090;2022-12-05T12:40:21;102045.63;;;5.58;96.06
75692;BME280;64307;52.508;6.090;2022-12-05T12:43:07;102049.06;;;5.55;95.40
75692;BME280;64307;52.508;6.090;2022-12-05T12:45:50;102047.91;;;5.56;96.31
75692;BME280;64307;52.508;6.090;2022-12-05T12:48:57;102042.69;;;5.63;96.28
75692;BME280;64307;52.508;6.090;2022-12-05T12:51:31;102043.56;;;5.55;95.96
75692;BME280;64307;52.508;6.090;2022-12-05T13:02:51;102025.22;;;5.51;96.00
75692;BME280;64307;52.508;6.090;2022-12-05T13:05:05;102021.16;;;5.48;96.33
75692;BME280;64307;52.508;6.090;2022-12-05T13:07:40;102015.31;;;5.50;95.66
75692;BME280;64307;52.508;6.090;2022-12-05T13:10:20;102024.00;;;5.60;96.27
75692;BME280;64307;52.508;6.090;2022-12-05T13:12:49;102027.44;;;5.57;95.77
75692;BME280;64307;52.508;6.090;2022-12-05T13:15:18;102021.22;;;5.60;95.45
75692;BME280;64307;52.508;6.090;2022-12-05T13:17:48;102019.50;;;5.56;96.50
75692;BME280;64307;52.508;6.090;2022-12-05T13:20:20;102025.50;;;5.58;96.25
75692;BME280;64307;52.508;6.090;2022-12-05T13:22:48;102025.81;;;5.56;95.61
75692;BME280;64307;52.508;6.090;2022-12-05T13:25:15;102029.22;;;5.62;96.07
75692;BME280;64307;52.508;6.090;2022-12-05T13:27:52;102030.69;;;5.59;95.86
75692;BME280;64307;52.508;6.090;2022-12-05T13:30:18;102034.88;;;5.65;96.32
75692;BME280;64307;52.508;6.090;2022-12-05T13:32:44;102027.91;;;5.59;96.60
75692;BME280;64307;52.508;6.090;2022-12-05T13:35:11;102033.25;;;5.64;96.05
75692;BME280;64307;52.508;6.090;2022-12-05T13:37:47;102033.72;;;5.66;96.33
75692;BME280;64307;52.508;6.090;2022-12-05T13:40:36;102034.22;;;5.68;95.76
75692;BME280;64307;52.508;6.090;2022-12-05T13:43:25;102027.91;;;5.59;95.70
75692;BME280;64307;52.508;6.090;2022-12-05T13:46:40;102022.41;;;5.59;96.37
75692;BME280;64307;52.508;6.090;2022-12-05T13:48:47;102028.00;;;5.71;95.64
75692;BME280;64307;52.508;6.090;2022-12-05T13:51:20;102028.88;;;5.63;96.08
75692;BME280;64307;52.508;6.090;2022-12-05T13:53:57;102032.59;;;5.67;95.81
75692;BME280;64307;52.508;6.090;2022-12-05T13:56:27;102032.94;;;5.66;95.77
75692;BME280;64307;52.508;6.090;2022-12-05T13:59:09;102039.75;;;5.68;95.85
75692;BME280;64307;52.508;6.090;2022-12-05T14:01:43;102038.41;;;5.74;95.85
75692;BME280;64307;52.508;6.090;2022-12-05T14:04:45;102035.69;;;5.66;95.83
75692;BME280;64307;52.508;6.090;2022-12-05T14:07:36;102037.28;;;5.67;95.78
75692;BME280;64307;52.508;6.090;2022-12-05T14:10:03;102043.13;;;5.74;96.04
75692;BME280;64307;52.508;6.090;2022-12-05T14:12:29;102041.34;;;5.69;95.65
75692;BME280;64307;52.508;6.090;2022-12-05T14:17:41;102046.34;;;5.76;95.82
75692;BME280;64307;52.508;6.090;2022-12-05T14:20:21;102039.88;;;5.72;95.48
75692;BME280;64307;52.508;6.090;2022-12-05T14:28:57;102046.09;;;5.60;95.64
75692;BME280;64307;52.508;6.090;2022-12-05T14:34:15;102038.72;;;5.73;96.22
75692;BME280;64307;52.508;6.090;2022-12-05T14:39:52;102035.63;;;5.74;96.47
75692;BME280;64307;52.508;6.090;2022-12-05T14:42:22;102029.81;;;5.67;95.86
75692;BME280;64307;52.508;6.090;2022-12-05T14:44:52;102034.34;;;5.72;95.95
75692;BME280;64307;52.508;6.090;2022-12-05T14:47:22;102024.41;;;5.71;95.82
75692;BME280;64307;52.508;6.090;2022-12-05T14:52:23;102031.13;;;5.70;94.83
75692;BME280;64307;52.508;6.090;2022-12-05T14:54:54;102024.47;;;5.62;95.43
75692;BME280;64307;52.508;6.090;2022-12-05T14:57:22;102040.09;;;5.58;95.01
75692;BME280;64307;52.508;6.090;2022-12-05T15:00:21;102040.09;;;5.58;95.90
75692;BME280;64307;52.508;6.090;2022-12-05T15:02:44;102048.56;;;5.62;95.61
75692;BME280;64307;52.508;6.090;2022-12-05T15:07:46;102038.03;;;5.55;95.93
75692;BME280;64307;52.508;6.090;2022-12-05T15:10:31;102049.69;;;5.61;95.80
75692;BME280;64307;52.508;6.090;2022-12-05T15:12:59;102044.03;;;5.57;95.77